sensor_id;sensor_type;location;lat;lon;timestamp;P1;durP1;ratioP1;P2;durP2;ratioP2
19754;SDS011;10036;47.812;9.274;2022-12-10T00:01:02;29.33;;;18.35;;
19754;SDS011;10036;47.812;9.274;2022-12-10T00:03:31;31.55;;;19.02;;
19754;SDS011;10036;47.812;9.274;2022-12-10T00:05:59;29.02;;;18.38;;
19754;SDS011;10036;47.812;9.274;2022-12-10T00:08:26;28.52;;;17.10;;
19754;SDS011;10036;47.812;9.274;2022-12-10T00:10:53;27.90;;;18.15;;
19754;SDS011;10036;47.812;9.274;2022-12-10T00:15:47;25.85;;;16.23;;
19754;SDS011;10036;47.812;9.274;2022-12-10T00:18:14;24.25;;;16.98;;
19754;SDS011;10036;47.812;9.274;2022-12-10T00:20:42;25.20;;;16.98;;
19754;SDS011;10036;47.812;9.274;2022-12-10T00:23:09;23.30;;;15.80;;
19754;SDS011;10036;47.812;9.274;2022-12-10T00:25:36;24.67;;;16.80;;
19754;SDS011;10036;47.812;9.274;2022-12-10T00:28:03;24.00;;;15.90;;
19754;SDS011;10036;47.812;9.274;2022-12-10T00:30:30;27.70;;;17.20;;
19754;SDS011;10036;47.812;9.274;2022-12-10T00:32:59;24.40;;;16.88;;
19754;SDS011;10036;47.812;9.274;2022-12-10T00:35:26;24.75;;;16.85;;
19754;SDS011;10036;47.812;9.274;2022-12-10T00:37:54;26.42;;;16.90;;
19754;SDS011;10036;47.812;9.274;2022-12-10T00:40:21;24.40;;;16.55;;
19754;SDS011;10036;47.812;9.274;2022-12-10T00:42:48;26.00;;;16.42;;
19754;SDS011;10036;47.812;9.274;2022-12-10T00:45:15;25.65;;;16.90;;
19754;SDS011;10036;47.812;9.274;2022-12-10T00:47:42;24.80;;;16.23;;
19754;SDS011;10036;47.812;9.274;2022-12-10T00:50:09;27.77;;;17.05;;
19754;SDS011;10036;47.812;9.274;2022-12-10T00:52:36;23.15;;;16.02;;
19754;SDS011;10036;47.812;9.274;2022-12-10T00:55:05;27.40;;;17.23;;
19754;SDS011;10036;47.812;9.274;2022-12-10T00:57:32;27.17;;;17.23;;
19754;SDS011;10036;47.812;9.274;2022-12-10T00:59:59;29.05;;;17.98;;
19754;SDS011;10036;47.812;9.274;2022-12-10T01:02:26;31.00;;;18.40;;
19754;SDS011;10036;47.812;9.274;2022-12-10T01:04:53;38.65;;;20.95;;
19754;SDS011;10036;47.812;9.274;2022-12-10T01:07:20;39.78;;;21.90;;
19754;SDS011;10036;47.812;9.274;2022-12-10T01:09:47;34.22;;;19.75;;
19754;SDS011;10036;47.812;9.274;2022-12-10T01:12:15;35.47;;;20.70;;
19754;SDS011;10036;47.812;9.274;2022-12-10T01:14:42;31.65;;;18.67;;
19754;SDS011;10036;47.812;9.274;2022-12-10T01:17:09;29.38;;;17.83;;
19754;SDS011;10036;47.812;9.274;2022-12-10T01:19:36;30.95;;;18.38;;
19754;SDS011;10036;47.812;9.274;2022-12-10T01:22:02;29.83;;;18.40;;
19754;SDS011;10036;47.812;9.274;2022-12-10T01:24:30;27.85;;;17.35;;
19754;SDS011;10036;47.812;9.274;2022-12-10T01:26:57;26.23;;;16.83;;
19754;SDS011;10036;47.812;9.274;2022-12-10T01:29:25;26.52;;;16.90;;
19754;SDS011;10036;47.812;9.274;2022-12-10T01:31:54;25.88;;;16.85;;
19754;SDS011;10036;47.812;9.274;2022-12-10T01:34:22;28.38;;;17.35;;
19754;SDS011;10036;47.812;9.274;2022-12-10T01:36:51;27.08;;;17.17;;
19754;SDS011;10036;47.812;9.274;2022-12-10T01:39:19;27.10;;;16.73;;
19754;SDS011;10036;47.812;9.274;2022-12-10T01:41:48;26.80;;;16.45;;
19754;SDS011;10036;47.812;9.274;2022-12-10T01:47:18;26.88;;;16.58;;
19754;SDS011;10036;47.812;9.274;2022-12-10T01:49:45;26.83;;;17.08;;
19754;SDS011;10036;47.812;9.274;2022-12-10T01:52:12;26.67;;;16.10;;
19754;SDS011;10036;47.812;9.274;2022-12-10T01:54:40;25.67;;;16.20;;
19754;SDS011;10036;47.812;9.274;2022-12-10T01:57:09;27.67;;;16.55;;
19754;SDS011;10036;47.812;9.274;2022-12-10T01:59:38;26.00;;;16.92;;
19754;SDS011;10036;47.812;9.274;2022-12-10T02:02:08;27.48;;;17.52;;
19754;SDS011;10036;47.812;9.274;2022-12-10T02:04:43;27.67;;;17.00;;
19754;SDS011;10036;47.812;9.274;2022-12-10T02:07:20;27.48;;;16.45;;
19754;SDS011;10036;47.812;9.274;2022-12-10T02:09:55;29.00;;;17.30;;
19754;SDS011;10036;47.812;9.274;2022-12-10T02:12:29;26.50;;;16.85;;
19754;SDS011;10036;47.812;9.274;2022-12-10T02:15:02;27.83;;;16.45;;
19754;SDS011;10036;47.812;9.274;2022-12-10T02:17:36;26.35;;;16.65;;
19754;SDS011;10036;47.812;9.274;2022-12-10T02:20:08;30.52;;;18.85;;
19754;SDS011;10036;47.812;9.274;2022-12-10T02:22:40;30.15;;;18.95;;
19754;SDS011;10036;47.812;9.274;2022-12-10T02:25:15;28.58;;;17.73;;
19754;SDS011;10036;47.812;9.274;2022-12-10T02:27:47;27.88;;;17.60;;
19754;SDS011;10036;47.812;9.274;2022-12-10T02:30:21;29.70;;;18.55;;
19754;SDS011;10036;47.812;9.274;2022-12-10T02:32:48;28.67;;;18.30;;
19754;SDS011;10036;47.812;9.274;2022-12-10T02:35:17;28.55;;;17.73;;
19754;SDS011;10036;47.812;9.274;2022-12-10T02:37:49;29.33;;;18.48;;
19754;SDS011;10036;47.812;9.274;2022-12-10T02:40:22;30.88;;;19.63;;
19754;SDS011;10036;47.812;9.274;2022-12-10T02:42:52;29.52;;;18.17;;
19754;SDS011;10036;47.812;9.274;2022-12-10T02:45:21;30.15;;;18.83;;
19754;SDS011;10036;47.812;9.274;2022-12-10T02:47:49;28.85;;;17.30;;
19754;SDS011;10036;47.812;9.274;2022-12-10T02:50:19;30.13;;;18.58;;
19754;SDS011;10036;47.812;9.274;2022-12-10T02:52:48;28.75;;;17.77;;
19754;SDS011;10036;47.812;9.274;2022-12-10T02:55:15;28.08;;;18.00;;
19754;SDS011;10036;47.812;9.274;2022-12-10T02:57:46;29.40;;;18.75;;
19754;SDS011;10036;47.812;9.274;2022-12-10T03:00:23;28.90;;;17.88;;
19754;SDS011;10036;47.812;9.274;2022-12-10T03:05:44;30.35;;;18.25;;
19754;SDS011;10036;47.812;9.274;2022-12-10T03:08:16;32.28;;;19.23;;
19754;SDS011;10036;47.812;9.274;2022-12-10T03:10:48;28.95;;;17.75;;
19754;SDS011;10036;47.812;9.274;2022-12-10T03:13:21;29.10;;;17.45;;
19754;SDS011;10036;47.812;9.274;2022-12-10T03:15:56;30.75;;;17.92;;
19754;SDS011;10036;47.812;9.274;2022-12-10T03:18:25;29.05;;;18.10;;
19754;SDS011;10036;47.812;9.274;2022-12-10T03:20:53;29.15;;;17.95;;
19754;SDS011;10036;47.812;9.274;2022-12-10T03:23:24;27.98;;;16.80;;
19754;SDS011;10036;47.812;9.274;2022-12-10T03:25:53;28.60;;;17.20;;
19754;SDS011;10036;47.812;9.274;2022-12-10T03:28:20;28.50;;;17.85;;
19754;SDS011;10036;47.812;9.274;2022-12-10T03:30:48;31.52;;;18.00;;
19754;SDS011;10036;47.812;9.274;2022-12-10T03:33:18;32.90;;;20.17;;
19754;SDS011;10036;47.812;9.274;2022-12-10T03:35:45;31.80;;;18.73;;
19754;SDS011;10036;47.812;9.274;2022-12-10T03:38:12;28.50;;;18.42;;
19754;SDS011;10036;47.812;9.274;2022-12-10T03:40:40;32.20;;;18.85;;
19754;SDS011;10036;47.812;9.274;2022-12-10T03:43:07;30.50;;;19.05;;
19754;SDS011;10036;47.812;9.274;2022-12-10T03:45:34;31.52;;;18.92;;
19754;SDS011;10036;47.812;9.274;2022-12-10T03:48:01;34.40;;;19.10;;
19754;SDS011;10036;47.812;9.274;2022-12-10T03:50:30;32.38;;;19.15;;
19754;SDS011;10036;47.812;9.274;2022-12-10T03:52:57;32.33;;;18.95;;
19754;SDS011;10036;47.812;9.274;2022-12-10T03:55:24;32.42;;;19.02;;
19754;SDS011;10036;47.812;9.274;2022-12-10T03:57:51;33.40;;;18.95;;
19754;SDS011;10036;47.812;9.274;2022-12-10T04:00:18;32.72;;;19.63;;
19754;SDS011;10036;47.812;9.274;2022-12-10T04:02:44;34.25;;;19.73;;
19754;SDS011;10036;47.812;9.274;2022-12-10T04:05:11;33.35;;;19.77;;
19754;SDS011;10036;47.812;9.274;2022-12-10T04:07:40;33.92;;;19.85;;
19754;SDS011;10036;47.812;9.274;2022-12-10T04:10:07;36.78;;;20.05;;
19754;SDS011;10036;47.812;9.274;2022-12-10T04:12:34;36.15;;;19.50;;
19754;SDS011;10036;47.812;9.274;2022-12-10T04:15:01;35.97;;;19.98;;
19754;SDS011;10036;47.812;9.274;2022-12-10T04:17:46;35.92;;;20.27;;
19754;SDS011;10036;47.812;9.274;2022-12-10T04:20:13;36.05;;;19.95;;
19754;SDS011;10036;47.812;9.274;2022-12-10T04:22:55;37.35;;;21.13;;
19754;SDS011;10036;47.812;9.274;2022-12-10T04:25:39;31.95;;;18.85;;
19754;SDS011;10036;47.812;9.274;2022-12-10T04:28:24;35.08;;;20.67;;
19754;SDS011;10036;47.812;9.274;2022-12-10T04:30:51;34.35;;;19.73;;
19754;SDS011;10036;47.812;9.274;2022-12-10T04:33:18;35.25;;;19.55;;
19754;SDS011;10036;47.812;9.274;2022-12-10T04:35:44;35.20;;;20.25;;
19754;SDS011;10036;47.812;9.274;2022-12-10T04:38:13;34.13;;;19.83;;
19754;SDS011;10036;47.812;9.274;2022-12-10T04:40:40;33.08;;;19.33;;
19754;SDS011;10036;47.812;9.274;2022-12-10T04:43:07;35.08;;;19.40;;
19754;SDS011;10036;47.812;9.274;2022-12-10T04:45:34;37.05;;;19.58;;
19754;SDS011;10036;47.812;9.274;2022-12-10T04:48:01;40.60;;;20.90;;
19754;SDS011;10036;47.812;9.274;2022-12-10T04:50:28;37.88;;;21.13;;
19754;SDS011;10036;47.812;9.274;2022-12-10T04:52:55;36.25;;;20.25;;
19754;SDS011;10036;47.812;9.274;2022-12-10T04:55:23;36.97;;;20.35;;
19754;SDS011;10036;47.812;9.274;2022-12-10T04:57:50;40.85;;;21.15;;
19754;SDS011;10036;47.812;9.274;2022-12-10T05:00:17;43.03;;;21.75;;
19754;SDS011;10036;47.812;9.274;2022-12-10T05:02:44;36.00;;;20.38;;
19754;SDS011;10036;47.812;9.274;2022-12-10T05:05:14;37.40;;;20.25;;
19754;SDS011;10036;47.812;9.274;2022-12-10T05:07:41;35.33;;;20.20;;
19754;SDS011;10036;47.812;9.274;2022-12-10T05:10:08;35.13;;;20.02;;
19754;SDS011;10036;47.812;9.274;2022-12-10T05:12:36;37.33;;;19.08;;
19754;SDS011;10036;47.812;9.274;2022-12-10T05:15:04;32.80;;;19.60;;
19754;SDS011;10036;47.812;9.274;2022-12-10T05:17:32;36.22;;;20.38;;
19754;SDS011;10036;47.812;9.274;2022-12-10T05:19:59;35.75;;;19.15;;
19754;SDS011;10036;47.812;9.274;2022-12-10T05:22:26;39.22;;;19.90;;
19754;SDS011;10036;47.812;9.274;2022-12-10T05:25:10;36.60;;;19.45;;
19754;SDS011;10036;47.812;9.274;2022-12-10T05:27:38;35.40;;;19.77;;
19754;SDS011;10036;47.812;9.274;2022-12-10T05:30:06;36.45;;;19.42;;
19754;SDS011;10036;47.812;9.274;2022-12-10T05:32:34;33.83;;;18.40;;
19754;SDS011;10036;47.812;9.274;2022-12-10T05:35:01;32.25;;;17.85;;
19754;SDS011;10036;47.812;9.274;2022-12-10T05:37:28;32.38;;;18.65;;
19754;SDS011;10036;47.812;9.274;2022-12-10T05:39:55;33.53;;;18.95;;
19754;SDS011;10036;47.812;9.274;2022-12-10T05:42:22;33.28;;;18.73;;
19754;SDS011;10036;47.812;9.274;2022-12-10T05:44:50;31.58;;;17.67;;
19754;SDS011;10036;47.812;9.274;2022-12-10T05:47:17;32.55;;;17.25;;
19754;SDS011;10036;47.812;9.274;2022-12-10T05:49:44;30.67;;;17.77;;
19754;SDS011;10036;47.812;9.274;2022-12-10T05:52:12;29.48;;;17.70;;
19754;SDS011;10036;47.812;9.274;2022-12-10T05:54:39;34.60;;;18.48;;
19754;SDS011;10036;47.812;9.274;2022-12-10T05:57:06;34.90;;;18.77;;
19754;SDS011;10036;47.812;9.274;2022-12-10T05:59:33;33.00;;;18.80;;
19754;SDS011;10036;47.812;9.274;2022-12-10T06:02:01;32.63;;;18.15;;
19754;SDS011;10036;47.812;9.274;2022-12-10T06:04:28;32.75;;;17.63;;
19754;SDS011;10036;47.812;9.274;2022-12-10T06:06:54;35.75;;;19.00;;
19754;SDS011;10036;47.812;9.274;2022-12-10T06:09:21;32.70;;;17.60;;
19754;SDS011;10036;47.812;9.274;2022-12-10T06:11:48;33.00;;;18.65;;
19754;SDS011;10036;47.812;9.274;2022-12-10T06:14:15;32.10;;;17.70;;
19754;SDS011;10036;47.812;9.274;2022-12-10T06:16:42;29.58;;;16.88;;
19754;SDS011;10036;47.812;9.274;2022-12-10T06:19:10;31.08;;;17.33;;
19754;SDS011;10036;47.812;9.274;2022-12-10T06:21:37;32.00;;;17.80;;
19754;SDS011;10036;47.812;9.274;2022-12-10T06:24:04;28.58;;;16.65;;
19754;SDS011;10036;47.812;9.274;2022-12-10T06:26:32;28.65;;;16.73;;
19754;SDS011;10036;47.812;9.274;2022-12-10T06:28:59;30.98;;;17.10;;
19754;SDS011;10036;47.812;9.274;2022-12-10T06:31:26;29.38;;;16.45;;
19754;SDS011;10036;47.812;9.274;2022-12-10T06:33:53;30.73;;;16.90;;
19754;SDS011;10036;47.812;9.274;2022-12-10T06:36:21;31.52;;;17.60;;
19754;SDS011;10036;47.812;9.274;2022-12-10T06:38:48;31.73;;;17.45;;
19754;SDS011;10036;47.812;9.274;2022-12-10T06:41:16;32.53;;;16.55;;
19754;SDS011;10036;47.812;9.274;2022-12-10T06:43:45;30.70;;;16.70;;
19754;SDS011;10036;47.812;9.274;2022-12-10T06:46:13;29.02;;;16.80;;
19754;SDS011;10036;47.812;9.274;2022-12-10T06:48:41;29.35;;;17.08;;
19754;SDS011;10036;47.812;9.274;2022-12-10T06:51:09;31.42;;;16.85;;
19754;SDS011;10036;47.812;9.274;2022-12-10T06:53:38;33.13;;;16.23;;
19754;SDS011;10036;47.812;9.274;2022-12-10T06:56:07;32.03;;;16.88;;
19754;SDS011;10036;47.812;9.274;2022-12-10T06:58:37;31.58;;;17.75;;
19754;SDS011;10036;47.812;9.274;2022-12-10T07:01:06;31.90;;;16.23;;
19754;SDS011;10036;47.812;9.274;2022-12-10T07:03:33;30.17;;;16.60;;
19754;SDS011;10036;47.812;9.274;2022-12-10T07:06:00;29.30;;;15.60;;
19754;SDS011;10036;47.812;9.274;2022-12-10T07:08:29;31.00;;;16.73;;
19754;SDS011;10036;47.812;9.274;2022-12-10T07:10:57;29.10;;;16.38;;
19754;SDS011;10036;47.812;9.274;2022-12-10T07:13:24;29.52;;;16.33;;
19754;SDS011;10036;47.812;9.274;2022-12-10T07:15:52;31.33;;;17.15;;
19754;SDS011;10036;47.812;9.274;2022-12-10T07:18:19;32.08;;;17.05;;
19754;SDS011;10036;47.812;9.274;2022-12-10T07:20:46;32.05;;;16.88;;
19754;SDS011;10036;47.812;9.274;2022-12-10T07:23:12;29.60;;;16.23;;
19754;SDS011;10036;47.812;9.274;2022-12-10T07:25:39;32.58;;;17.38;;
19754;SDS011;10036;47.812;9.274;2022-12-10T07:28:08;29.92;;;17.45;;
19754;SDS011;10036;47.812;9.274;2022-12-10T07:30:35;31.63;;;17.63;;
19754;SDS011;10036;47.812;9.274;2022-12-10T07:33:02;33.00;;;17.83;;
19754;SDS011;10036;47.812;9.274;2022-12-10T07:35:29;29.48;;;16.13;;
19754;SDS011;10036;47.812;9.274;2022-12-10T07:37:56;29.90;;;16.90;;
19754;SDS011;10036;47.812;9.274;2022-12-10T07:40:23;29.15;;;16.23;;
19754;SDS011;10036;47.812;9.274;2022-12-10T07:42:50;29.52;;;16.73;;
19754;SDS011;10036;47.812;9.274;2022-12-10T07:45:18;30.75;;;16.58;;
19754;SDS011;10036;47.812;9.274;2022-12-10T07:47:45;29.20;;;16.92;;
19754;SDS011;10036;47.812;9.274;2022-12-10T07:50:12;29.77;;;16.60;;
19754;SDS011;10036;47.812;9.274;2022-12-10T07:52:39;31.25;;;18.42;;
19754;SDS011;10036;47.812;9.274;2022-12-10T07:55:06;30.95;;;16.67;;
19754;SDS011;10036;47.812;9.274;2022-12-10T07:57:33;35.88;;;17.90;;
19754;SDS011;10036;47.812;9.274;2022-12-10T08:00:00;33.88;;;17.92;;
19754;SDS011;10036;47.812;9.274;2022-12-10T08:02:29;34.63;;;18.50;;
19754;SDS011;10036;47.812;9.274;2022-12-10T08:04:56;38.58;;;19.20;;
19754;SDS011;10036;47.812;9.274;2022-12-10T08:07:23;39.78;;;20.27;;
19754;SDS011;10036;47.812;9.274;2022-12-10T08:09:50;38.20;;;18.30;;
19754;SDS011;10036;47.812;9.274;2022-12-10T08:12:16;36.80;;;20.48;;
19754;SDS011;10036;47.812;9.274;2022-12-10T08:14:43;36.85;;;19.55;;
19754;SDS011;10036;47.812;9.274;2022-12-10T08:17:10;35.65;;;20.00;;
19754;SDS011;10036;47.812;9.274;2022-12-10T08:19:38;32.60;;;19.40;;
19754;SDS011;10036;47.812;9.274;2022-12-10T08:22:05;37.40;;;20.38;;
19754;SDS011;10036;47.812;9.274;2022-12-10T08:24:33;37.03;;;20.25;;
19754;SDS011;10036;47.812;9.274;2022-12-10T08:27:00;36.67;;;20.65;;
19754;SDS011;10036;47.812;9.274;2022-12-10T08:29:27;37.60;;;21.67;;
19754;SDS011;10036;47.812;9.274;2022-12-10T08:31:54;44.08;;;22.00;;
19754;SDS011;10036;47.812;9.274;2022-12-10T08:34:21;38.35;;;21.38;;
19754;SDS011;10036;47.812;9.274;2022-12-10T08:36:49;39.80;;;22.27;;
19754;SDS011;10036;47.812;9.274;2022-12-10T08:39:16;35.22;;;20.75;;
19754;SDS011;10036;47.812;9.274;2022-12-10T08:41:43;36.05;;;20.52;;
19754;SDS011;10036;47.812;9.274;2022-12-10T08:44:11;36.22;;;21.35;;
19754;SDS011;10036;47.812;9.274;2022-12-10T08:46:39;38.13;;;22.27;;
19754;SDS011;10036;47.812;9.274;2022-12-10T08:49:06;43.08;;;25.15;;
19754;SDS011;10036;47.812;9.274;2022-12-10T08:51:33;40.40;;;24.10;;
19754;SDS011;10036;47.812;9.274;2022-12-10T08:54:02;41.45;;;22.52;;
19754;SDS011;10036;47.812;9.274;2022-12-10T08:56:29;40.00;;;22.23;;
19754;SDS011;10036;47.812;9.274;2022-12-10T08:58:56;39.88;;;23.08;;
19754;SDS011;10036;47.812;9.274;2022-12-10T09:01:23;43.13;;;23.33;;
19754;SDS011;10036;47.812;9.274;2022-12-10T09:03:50;40.45;;;23.15;;
19754;SDS011;10036;47.812;9.274;2022-12-10T09:06:19;37.67;;;22.73;;
19754;SDS011;10036;47.812;9.274;2022-12-10T09:08:47;37.67;;;21.67;;
19754;SDS011;10036;47.812;9.274;2022-12-10T09:11:16;40.95;;;23.02;;
19754;SDS011;10036;47.812;9.274;2022-12-10T09:13:44;38.95;;;22.58;;
19754;SDS011;10036;47.812;9.274;2022-12-10T09:16:11;39.17;;;22.95;;
19754;SDS011;10036;47.812;9.274;2022-12-10T09:18:39;35.88;;;21.35;;
19754;SDS011;10036;47.812;9.274;2022-12-10T09:21:06;38.30;;;22.02;;
19754;SDS011;10036;47.812;9.274;2022-12-10T09:23:34;37.88;;;22.05;;
19754;SDS011;10036;47.812;9.274;2022-12-10T09:26:04;39.47;;;22.05;;
19754;SDS011;10036;47.812;9.274;2022-12-10T09:28:33;37.70;;;20.67;;
19754;SDS011;10036;47.812;9.274;2022-12-10T09:31:00;32.40;;;20.65;;
19754;SDS011;10036;47.812;9.274;2022-12-10T09:33:29;32.67;;;20.83;;
19754;SDS011;10036;47.812;9.274;2022-12-10T09:35:56;35.88;;;20.25;;
19754;SDS011;10036;47.812;9.274;2022-12-10T09:38:23;35.55;;;20.50;;
19754;SDS011;10036;47.812;9.274;2022-12-10T09:41:02;35.90;;;21.08;;
19754;SDS011;10036;47.812;9.274;2022-12-10T09:43:36;33.42;;;19.85;;
19754;SDS011;10036;47.812;9.274;2022-12-10T09:46:14;34.20;;;20.20;;
19754;SDS011;10036;47.812;9.274;2022-12-10T09:48:49;31.77;;;19.33;;
19754;SDS011;10036;47.812;9.274;2022-12-10T09:51:26;31.80;;;18.92;;
19754;SDS011;10036;47.812;9.274;2022-12-10T09:53:55;31.10;;;19.02;;
19754;SDS011;10036;47.812;9.274;2022-12-10T09:56:25;32.75;;;20.08;;
19754;SDS011;10036;47.812;9.274;2022-12-10T09:58:56;35.13;;;19.85;;
19754;SDS011;10036;47.812;9.274;2022-12-10T10:01:27;35.38;;;20.00;;
19754;SDS011;10036;47.812;9.274;2022-12-10T10:03:55;31.77;;;19.70;;
19754;SDS011;10036;47.812;9.274;2022-12-10T10:06:22;33.15;;;19.50;;
19754;SDS011;10036;47.812;9.274;2022-12-10T10:08:52;33.80;;;19.00;;
19754;SDS011;10036;47.812;9.274;2022-12-10T10:11:23;30.45;;;18.65;;
19754;SDS011;10036;47.812;9.274;2022-12-10T10:13:54;37.42;;;20.67;;
19754;SDS011;10036;47.812;9.274;2022-12-10T10:16:25;32.78;;;20.27;;
19754;SDS011;10036;47.812;9.274;2022-12-10T10:18:57;34.63;;;19.38;;
19754;SDS011;10036;47.812;9.274;2022-12-10T10:21:27;32.47;;;19.27;;
19754;SDS011;10036;47.812;9.274;2022-12-10T10:23:57;34.80;;;19.55;;
19754;SDS011;10036;47.812;9.274;2022-12-10T10:26:26;37.53;;;21.10;;
19754;SDS011;10036;47.812;9.274;2022-12-10T10:28:56;33.03;;;19.92;;
19754;SDS011;10036;47.812;9.274;2022-12-10T10:31:27;31.05;;;19.27;;
19754;SDS011;10036;47.812;9.274;2022-12-10T10:33:56;31.27;;;18.25;;
19754;SDS011;10036;47.812;9.274;2022-12-10T10:36:24;33.45;;;19.35;;
19754;SDS011;10036;47.812;9.274;2022-12-10T10:38:53;32.00;;;20.17;;
19754;SDS011;10036;47.812;9.274;2022-12-10T10:41:20;36.50;;;20.75;;
19754;SDS011;10036;47.812;9.274;2022-12-10T10:43:51;33.50;;;20.20;;
19754;SDS011;10036;47.812;9.274;2022-12-10T10:46:28;37.55;;;19.15;;
19754;SDS011;10036;47.812;9.274;2022-12-10T10:49:11;32.80;;;18.90;;
19754;SDS011;10036;47.812;9.274;2022-12-10T10:51:42;32.58;;;19.35;;
19754;SDS011;10036;47.812;9.274;2022-12-10T10:54:10;32.33;;;19.45;;
19754;SDS011;10036;47.812;9.274;2022-12-10T10:56:38;33.63;;;19.75;;
19754;SDS011;10036;47.812;9.274;2022-12-10T10:59:18;29.02;;;17.10;;
19754;SDS011;10036;47.812;9.274;2022-12-10T11:01:56;23.55;;;14.57;;
19754;SDS011;10036;47.812;9.274;2022-12-10T11:04:28;25.23;;;14.70;;
19754;SDS011;10036;47.812;9.274;2022-12-10T11:06:59;23.88;;;14.80;;
19754;SDS011;10036;47.812;9.274;2022-12-10T11:09:28;21.88;;;13.77;;
19754;SDS011;10036;47.812;9.274;2022-12-10T11:11:58;22.42;;;13.43;;
19754;SDS011;10036;47.812;9.274;2022-12-10T11:14:29;21.05;;;13.48;;
19754;SDS011;10036;47.812;9.274;2022-12-10T11:17:02;26.40;;;14.23;;
19754;SDS011;10036;47.812;9.274;2022-12-10T11:19:41;24.10;;;14.55;;
19754;SDS011;10036;47.812;9.274;2022-12-10T11:22:14;22.13;;;14.17;;
19754;SDS011;10036;47.812;9.274;2022-12-10T11:24:43;20.23;;;12.98;;
19754;SDS011;10036;47.812;9.274;2022-12-10T11:27:12;24.90;;;14.32;;
19754;SDS011;10036;47.812;9.274;2022-12-10T11:29:48;23.80;;;15.43;;
19754;SDS011;10036;47.812;9.274;2022-12-10T11:32:34;23.80;;;14.75;;
19754;SDS011;10036;47.812;9.274;2022-12-10T11:35:14;24.80;;;15.80;;
19754;SDS011;10036;47.812;9.274;2022-12-10T11:37:47;27.55;;;15.70;;
19754;SDS011;10036;47.812;9.274;2022-12-10T11:40:22;27.48;;;15.43;;
19754;SDS011;10036;47.812;9.274;2022-12-10T11:43:14;26.75;;;15.35;;
19754;SDS011;10036;47.812;9.274;2022-12-10T11:45:58;23.38;;;14.80;;
19754;SDS011;10036;47.812;9.274;2022-12-10T11:48:41;25.52;;;15.98;;
19754;SDS011;10036;47.812;9.274;2022-12-10T11:51:19;23.00;;;13.88;;
19754;SDS011;10036;47.812;9.274;2022-12-10T11:53:59;24.25;;;14.82;;
19754;SDS011;10036;47.812;9.274;2022-12-10T11:56:34;21.23;;;13.63;;
19754;SDS011;10036;47.812;9.274;2022-12-10T11:59:05;20.50;;;12.95;;
19754;SDS011;10036;47.812;9.274;2022-12-10T12:01:45;19.48;;;12.65;;
19754;SDS011;10036;47.812;9.274;2022-12-10T12:04:23;21.10;;;12.70;;
19754;SDS011;10036;47.812;9.274;2022-12-10T12:07:01;21.67;;;13.32;;
19754;SDS011;10036;47.812;9.274;2022-12-10T12:09:43;21.77;;;13.15;;
19754;SDS011;10036;47.812;9.274;2022-12-10T12:12:22;19.58;;;12.60;;
19754;SDS011;10036;47.812;9.274;2022-12-10T12:15:00;18.88;;;12.20;;
19754;SDS011;10036;47.812;9.274;2022-12-10T12:17:30;18.42;;;11.68;;
19754;SDS011;10036;47.812;9.274;2022-12-10T12:20:03;18.05;;;11.52;;
19754;SDS011;10036;47.812;9.274;2022-12-10T12:22:39;16.40;;;11.20;;
19754;SDS011;10036;47.812;9.274;2022-12-10T12:25:14;16.73;;;10.52;;
19754;SDS011;10036;47.812;9.274;2022-12-10T12:27:47;15.57;;;10.43;;
19754;SDS011;10036;47.812;9.274;2022-12-10T12:30:18;18.85;;;11.23;;
19754;SDS011;10036;47.812;9.274;2022-12-10T12:32:49;16.52;;;10.45;;
19754;SDS011;10036;47.812;9.274;2022-12-10T12:35:22;14.30;;;9.50;;
19754;SDS011;10036;47.812;9.274;2022-12-10T12:37:59;16.58;;;10.57;;
19754;SDS011;10036;47.812;9.274;2022-12-10T12:40:33;15.20;;;9.80;;
19754;SDS011;10036;47.812;9.274;2022-12-10T12:43:07;18.80;;;10.48;;
19754;SDS011;10036;47.812;9.274;2022-12-10T12:45:39;14.90;;;10.43;;
19754;SDS011;10036;47.812;9.274;2022-12-10T12:48:18;17.20;;;10.02;;
19754;SDS011;10036;47.812;9.274;2022-12-10T12:50:53;17.38;;;10.98;;
19754;SDS011;10036;47.812;9.274;2022-12-10T12:53:24;16.35;;;10.63;;
19754;SDS011;10036;47.812;9.274;2022-12-10T12:55:55;18.40;;;11.27;;
19754;SDS011;10036;47.812;9.274;2022-12-10T12:58:31;17.33;;;11.77;;
19754;SDS011;10036;47.812;9.274;2022-12-10T13:01:06;17.52;;;10.70;;
19754;SDS011;10036;47.812;9.274;2022-12-10T13:03:39;16.30;;;11.02;;
19754;SDS011;10036;47.812;9.274;2022-12-10T13:06:13;17.98;;;11.55;;
19754;SDS011;10036;47.812;9.274;2022-12-10T13:08:42;18.58;;;11.18;;
19754;SDS011;10036;47.812;9.274;2022-12-10T13:11:17;20.30;;;12.13;;
19754;SDS011;10036;47.812;9.274;2022-12-10T13:14:14;21.50;;;11.38;;
19754;SDS011;10036;47.812;9.274;2022-12-10T13:16:59;19.65;;;11.82;;
19754;SDS011;10036;47.812;9.274;2022-12-10T13:19:29;20.33;;;11.65;;
19754;SDS011;10036;47.812;9.274;2022-12-10T13:22:00;18.77;;;11.63;;
19754;SDS011;10036;47.812;9.274;2022-12-10T13:24:43;19.63;;;12.23;;
19754;SDS011;10036;47.812;9.274;2022-12-10T13:27:28;18.50;;;11.80;;
19754;SDS011;10036;47.812;9.274;2022-12-10T13:29:59;18.45;;;11.43;;
19754;SDS011;10036;47.812;9.274;2022-12-10T13:32:42;21.02;;;11.93;;
19754;SDS011;10036;47.812;9.274;2022-12-10T13:35:28;17.52;;;10.77;;
19754;SDS011;10036;47.812;9.274;2022-12-10T13:38:02;19.88;;;10.55;;
19754;SDS011;10036;47.812;9.274;2022-12-10T13:40:38;20.15;;;10.90;;
19754;SDS011;10036;47.812;9.274;2022-12-10T13:43:26;17.58;;;10.18;;
19754;SDS011;10036;47.812;9.274;2022-12-10T13:46:23;15.65;;;10.52;;
19754;SDS011;10036;47.812;9.274;2022-12-10T13:48:52;17.40;;;11.18;;
19754;SDS011;10036;47.812;9.274;2022-12-10T13:51:26;16.80;;;9.82;;
19754;SDS011;10036;47.812;9.274;2022-12-10T13:54:14;17.30;;;10.00;;
19754;SDS011;10036;47.812;9.274;2022-12-10T13:56:58;12.68;;;8.95;;
19754;SDS011;10036;47.812;9.274;2022-12-10T13:59:35;13.38;;;8.95;;
19754;SDS011;10036;47.812;9.274;2022-12-10T14:05:04;14.80;;;8.60;;
19754;SDS011;10036;47.812;9.274;2022-12-10T14:07:40;14.32;;;9.32;;
19754;SDS011;10036;47.812;9.274;2022-12-10T14:10:14;16.05;;;9.80;;
19754;SDS011;10036;47.812;9.274;2022-12-10T14:12:43;16.10;;;8.88;;
19754;SDS011;10036;47.812;9.274;2022-12-10T14:15:14;15.52;;;9.73;;
19754;SDS011;10036;47.812;9.274;2022-12-10T14:17:46;15.90;;;9.82;;
19754;SDS011;10036;47.812;9.274;2022-12-10T14:20:16;16.77;;;10.05;;
19754;SDS011;10036;47.812;9.274;2022-12-10T14:22:45;14.82;;;9.55;;
19754;SDS011;10036;47.812;9.274;2022-12-10T14:25:16;13.93;;;9.43;;
19754;SDS011;10036;47.812;9.274;2022-12-10T14:27:46;14.30;;;9.02;;
19754;SDS011;10036;47.812;9.274;2022-12-10T14:30:15;15.73;;;9.90;;
19754;SDS011;10036;47.812;9.274;2022-12-10T14:32:43;14.47;;;9.17;;
19754;SDS011;10036;47.812;9.274;2022-12-10T14:35:12;16.38;;;9.63;;
19754;SDS011;10036;47.812;9.274;2022-12-10T14:37:41;14.02;;;9.20;;
19754;SDS011;10036;47.812;9.274;2022-12-10T14:40:12;14.85;;;9.93;;
19754;SDS011;10036;47.812;9.274;2022-12-10T14:42:45;15.13;;;8.85;;
19754;SDS011;10036;47.812;9.274;2022-12-10T14:45:13;12.57;;;8.82;;
19754;SDS011;10036;47.812;9.274;2022-12-10T14:47:42;17.38;;;9.30;;
19754;SDS011;10036;47.812;9.274;2022-12-10T14:50:09;15.07;;;9.95;;
19754;SDS011;10036;47.812;9.274;2022-12-10T14:52:39;13.38;;;9.25;;